createdAt,value
2022-08-17T00:00:34.323Z,28.00
2022-08-17T00:05:41.668Z,27.20
2022-08-17T00:10:45.824Z,25.85
2022-08-17T00:15:47.710Z,25.90
2022-08-17T00:20:49.225Z,26.13
2022-08-17T00:25:52.263Z,26.13
2022-08-17T00:30:54.312Z,25.55
2022-08-17T00:35:57.188Z,25.88
2022-08-17T00:41:05.634Z,24.75
2022-08-17T00:46:16.294Z,25.25
2022-08-17T00:51:29.795Z,24.27
2022-08-17T00:56:37.843Z,24.65
2022-08-17T01:01:40.156Z,22.67
2022-08-17T01:06:42.817Z,25.27
2022-08-17T01:11:45.476Z,23.13
2022-08-17T01:16:49.359Z,24.83
2022-08-17T01:21:59.389Z,25.65
2022-08-17T01:27:02.901Z,24.75
2022-08-17T01:32:12.709Z,25.20
2022-08-17T01:37:14.542Z,25.42
2022-08-17T01:42:23.692Z,25.63
2022-08-17T01:47:25.892Z,26.45
2022-08-17T01:52:27.422Z,25.98
2022-08-17T01:57:28.939Z,27.27
2022-08-17T02:02:31.582Z,26.90
2022-08-17T02:07:47.936Z,28.17
2022-08-17T02:12:55.731Z,26.55
2022-08-17T02:17:57.297Z,30.38
2022-08-17T02:23:02.389Z,27.98
2022-08-17T02:28:04.575Z,27.55
2022-08-17T02:33:09.246Z,25.73
2022-08-17T02:38:11.044Z,25.15
2022-08-17T02:43:13.945Z,28.02
2022-08-17T02:48:15.515Z,27.67
2022-08-17T02:53:35.662Z,28.60
2022-08-17T02:58:37.866Z,29.27
2022-08-17T03:03:39.888Z,29.85
2022-08-17T03:08:41.367Z,28.65
2022-08-17T03:13:42.877Z,27.42
2022-08-17T03:18:44.381Z,27.10
2022-08-17T03:23:45.867Z,28.48
2022-08-17T03:28:47.359Z,25.85
2022-08-17T03:33:48.873Z,26.67
2022-08-17T03:38:50.428Z,25.58
2022-08-17T03:43:52.629Z,28.65
2022-08-17T03:49:13.527Z,26.08
2022-08-17T03:54:33.876Z,14.68
2022-08-17T03:59:36.138Z,18.88
2022-08-17T04:04:38.345Z,13.25
2022-08-17T04:09:40.039Z,14.77
2022-08-17T04:14:53.699Z,12.45
2022-08-17T04:19:56.727Z,4.72
2022-08-17T04:24:59.061Z,4.50
2022-08-17T04:30:01.002Z,4.30
2022-08-17T04:35:02.505Z,5.00
2022-08-17T04:40:23.102Z,5.15
2022-08-17T04:45:32.188Z,5.78
2022-08-17T04:50:36.969Z,6.10
2022-08-17T04:55:38.833Z,6.63
2022-08-17T05:00:40.425Z,6.25
2022-08-17T05:05:49.695Z,7.97
2022-08-17T05:10:52.095Z,8.00
2022-08-17T05:15:56.807Z,6.88
2022-08-17T05:20:58.854Z,8.35
2022-08-17T05:26:00.428Z,10.27
2022-08-17T05:31:03.730Z,16.17
2022-08-17T05:36:08.021Z,18.98
2022-08-17T05:41:09.957Z,20.77
2022-08-17T05:46:28.055Z,19.17
2022-08-17T05:51:51.199Z,16.67
2022-08-17T05:57:07.522Z,15.15
2022-08-17T06:02:36.208Z,13.98
2022-08-17T06:08:08.534Z,14.25
2022-08-17T06:13:31.375Z,12.90
2022-08-17T06:18:43.613Z,12.40
2022-08-17T06:23:50.677Z,11.77
2022-08-17T06:34:03.117Z,8.95
2022-08-17T06:39:48.101Z,9.05
2022-08-17T06:44:57.617Z,7.47
2022-08-17T06:50:09.075Z,7.90
2022-08-17T06:55:18.562Z,8.88
2022-08-17T07:00:24.636Z,9.73
2022-08-17T07:05:33.873Z,10.50
2022-08-17T07:11:04.051Z,10.18
2022-08-17T07:16:30.474Z,13.25
2022-08-17T07:21:44.018Z,14.43
2022-08-17T07:26:46.625Z,20.92
2022-08-17T07:31:48.186Z,27.17
2022-08-17T07:37:03.398Z,30.05
2022-08-17T07:42:05.288Z,31.48
2022-08-17T07:47:35.468Z,30.50
2022-08-17T07:52:50.501Z,28.45
2022-08-17T07:57:58.688Z,25.42
2022-08-17T08:03:26.217Z,27.88
2022-08-17T08:08:37.677Z,24.20
2022-08-17T08:13:43.624Z,24.95
2022-08-17T08:18:55.429Z,25.58
2022-08-17T08:24:24.584Z,18.98
2022-08-17T08:29:56.411Z,15.50
2022-08-17T08:35:04.325Z,10.02
2022-08-17T08:40:27.645Z,11.02
2022-08-17T08:46:03.392Z,12.63
2022-08-17T08:51:42.818Z,15.45
2022-08-17T08:57:22.296Z,19.63
2022-08-17T09:02:34.567Z,20.02
2022-08-17T09:07:39.290Z,17.85
2022-08-17T09:12:53.122Z,18.95
2022-08-17T09:18:59.018Z,24.13
2022-08-17T09:23:32.434Z,25.58
2022-08-17T09:28:36.493Z,24.48
2022-08-17T09:33:44.364Z,25.95
2022-08-17T09:38:58.255Z,22.83
2022-08-17T09:44:23.027Z,22.02
2022-08-17T09:49:34.265Z,19.88
2022-08-17T09:54:40.664Z,15.40
2022-08-17T10:00:16.706Z,13.60
2022-08-17T10:05:57.469Z,15.82
2022-08-17T10:11:11.556Z,13.50
2022-08-17T10:16:32.438Z,15.35
2022-08-17T10:22:01.041Z,16.38
2022-08-17T10:27:20.136Z,17.13
2022-08-17T10:32:32.308Z,16.30
2022-08-17T10:37:36.373Z,15.57
2022-08-17T10:42:59.592Z,14.55
2022-08-17T10:48:26.780Z,15.48
2022-08-17T10:53:31.310Z,16.85
2022-08-17T10:58:56.253Z,17.33
2022-08-17T11:04:03.471Z,16.27
2022-08-17T11:09:11.809Z,17.40
2022-08-17T11:14:28.024Z,13.82
2022-08-17T11:19:48.179Z,15.68
2022-08-17T11:24:52.933Z,17.27
2022-08-17T11:30:34.780Z,18.20
2022-08-17T11:35:51.553Z,17.13
2022-08-17T11:41:34.475Z,16.03
2022-08-17T11:46:54.673Z,13.45
2022-08-17T11:51:59.515Z,13.43
2022-08-17T11:57:30.146Z,9.35
2022-08-17T12:02:35.696Z,8.80
2022-08-17T12:07:42.992Z,9.35
2022-08-17T12:12:45.770Z,9.00
2022-08-17T12:17:54.752Z,8.10
2022-08-17T12:23:06.753Z,6.45
2022-08-17T12:28:25.872Z,6.15
2022-08-17T12:33:28.860Z,5.90
2022-08-17T12:38:34.592Z,6.60
2022-08-17T12:43:36.448Z,6.38
2022-08-17T12:48:37.986Z,5.80
2022-08-17T12:53:40.809Z,6.78
2022-08-17T12:58:53.331Z,7.13
2022-08-17T13:03:59.587Z,9.00
2022-08-17T13:09:19.429Z,12.50
2022-08-17T13:14:21.465Z,13.13
2022-08-17T13:19:29.885Z,12.38
2022-08-17T13:24:55.085Z,10.77
2022-08-17T13:30:00.370Z,11.95
2022-08-17T13:35:29.459Z,10.05
2022-08-17T13:40:45.224Z,11.40
2022-08-17T13:45:50.847Z,10.73
2022-08-17T13:50:55.289Z,11.93
2022-08-17T13:56:37.502Z,12.55
2022-08-17T14:01:35.435Z,13.90
2022-08-17T14:06:52.817Z,15.50
2022-08-17T14:11:57.587Z,16.60
2022-08-17T14:16:59.266Z,13.13
2022-08-17T14:22:01.135Z,13.63
2022-08-17T14:27:05.374Z,12.05
2022-08-17T14:32:17.072Z,11.02
2022-08-17T14:37:20.117Z,9.10
2022-08-17T14:42:24.667Z,9.80
2022-08-17T14:47:26.598Z,10.13
2022-08-17T14:52:29.298Z,8.35
2022-08-17T14:57:34.276Z,8.18
2022-08-17T15:02:48.661Z,7.43
2022-08-17T15:07:50.510Z,8.40
2022-08-17T15:12:52.185Z,8.60
2022-08-17T15:17:54.523Z,7.55
2022-08-17T15:22:58.699Z,7.90
2022-08-17T15:28:01.396Z,8.32
2022-08-17T15:33:03.244Z,9.52
2022-08-17T15:38:11.546Z,9.85
2022-08-17T15:43:27.310Z,9.32
2022-08-17T15:48:43.591Z,9.05
2022-08-17T15:53:47.884Z,10.02
2022-08-17T15:58:49.963Z,8.57
2022-08-17T16:04:06.685Z,8.00
2022-08-17T16:09:15.097Z,7.97
2022-08-17T16:14:16.880Z,7.25
2022-08-17T16:19:18.680Z,7.45
2022-08-17T16:24:20.182Z,6.70
2022-08-17T16:29:22.063Z,6.20
2022-08-17T16:34:23.824Z,6.75
2022-08-17T16:39:29.015Z,6.70
2022-08-17T16:44:32.123Z,6.00
2022-08-17T16:49:36.832Z,5.75
2022-08-17T16:54:43.445Z,5.90
2022-08-17T16:59:48.083Z,5.88
2022-08-17T17:04:57.906Z,6.07
2022-08-17T17:10:06.826Z,6.60
2022-08-17T17:15:10.388Z,5.88
2022-08-17T17:20:17.356Z,6.13
2022-08-17T17:30:52.939Z,5.95
2022-08-17T17:35:59.204Z,7.28
2022-08-17T17:41:05.822Z,6.37
2022-08-17T17:46:27.126Z,6.32
2022-08-17T17:52:08.764Z,5.50
2022-08-17T17:57:18.871Z,6.68
2022-08-17T18:03:15.125Z,6.97
2022-08-17T18:08:33.953Z,8.70
2022-08-17T18:14:15.951Z,6.43
2022-08-17T18:19:24.912Z,6.15
2022-08-17T18:24:32.238Z,7.07
2022-08-17T18:29:39.847Z,7.22
2022-08-17T18:34:48.313Z,7.28
2022-08-17T18:39:50.361Z,6.65
2022-08-17T18:44:55.367Z,6.70
2022-08-17T18:50:17.932Z,7.38
2022-08-17T18:55:27.711Z,6.32
2022-08-17T19:00:35.770Z,6.25
2022-08-17T19:05:44.601Z,6.15
2022-08-17T19:10:49.949Z,4.93
2022-08-17T19:16:12.160Z,5.90
2022-08-17T19:21:25.497Z,5.50
2022-08-17T19:26:53.797Z,4.57
2022-08-17T19:31:58.359Z,4.13
2022-08-17T19:37:10.953Z,4.47
2022-08-17T19:42:25.183Z,5.05
2022-08-17T19:47:54.774Z,4.80
2022-08-17T19:53:07.268Z,4.70
2022-08-17T19:58:08.772Z,4.90
2022-08-17T20:03:22.112Z,4.88
2022-08-17T20:08:32.583Z,4.78
2022-08-17T20:13:42.828Z,4.95
2022-08-17T20:19:11.235Z,4.47
2022-08-17T20:24:37.211Z,4.45
2022-08-17T20:30:06.806Z,4.97
2022-08-17T20:35:44.549Z,4.30
2022-08-17T20:46:19.936Z,4.00
2022-08-17T20:51:25.892Z,4.20
2022-08-17T20:56:43.350Z,4.47
2022-08-17T21:02:18.314Z,3.97
2022-08-17T21:07:42.932Z,3.92
2022-08-17T21:12:57.986Z,4.72
2022-08-17T21:18:11.933Z,4.20
2022-08-17T21:23:22.323Z,4.60
2022-08-17T21:29:00.313Z,5.03
2022-08-17T21:34:15.045Z,5.65
2022-08-17T21:39:24.247Z,5.78
2022-08-17T21:44:50.701Z,6.00
2022-08-17T21:49:54.463Z,5.97
2022-08-17T21:55:02.436Z,5.88
2022-08-17T22:00:15.641Z,5.45
2022-08-17T22:05:31.491Z,4.63
2022-08-17T22:15:39.999Z,5.18
2022-08-17T22:20:41.592Z,6.15
2022-08-17T22:26:05.769Z,5.30
2022-08-17T22:31:22.969Z,5.20
2022-08-17T22:36:34.476Z,5.60
2022-08-17T22:41:35.986Z,5.00
2022-08-17T22:46:41.488Z,4.97
2022-08-17T22:51:43.106Z,5.85
2022-08-17T22:57:14.822Z,4.43
2022-08-17T23:02:24.907Z,5.97
2022-08-17T23:07:26.467Z,4.43
2022-08-17T23:12:28.065Z,5.95
2022-08-17T23:17:37.225Z,4.65
2022-08-17T23:22:52.287Z,4.38
2022-08-17T23:27:57.568Z,4.25
2022-08-17T23:33:04.173Z,4.40
2022-08-17T23:38:05.785Z,4.97
2022-08-17T23:43:23.327Z,4.65
2022-08-17T23:48:36.314Z,4.50
2022-08-17T23:53:44.708Z,5.13
2022-08-17T23:58:46.372Z,4.70
